Terminal Aerodrome Forecast
Issued by NWS

Home | Current Version | Previous Version | Text Only | Print | Product List | Glossary On
Versions: 1 2 3 4 5 6 7 8 9 10 11 12 13 14 15 16 17 18 19 20 21 22 23 24 25 26 27 28 29 30 31 32 33 34 35 36 37 38 39 40 41 42 43 44 45 46 47 48 49 50
013
FTUS46 KLOX 080546
TAFPMD
TAF
KPMD 080546Z 0806/0906 34006KT P6SM VCSH SCT060
     FM081100 23015KT P6SM VCSH SCT025 BKN050
     FM081600 24015G25KT P6SM VCSH SCT035 BKN080
     FM082100 27020G30KT P6SM VCSH SCT040 BKN080
     FM090100 26020KT P6SM OVC100
     FM090200 26012KT P6SM OVC100=

USA.gov is the U.S. government's official web portal to all federal, state and local government web resources and services.